Time;durP1;ratioP1;P1;durP2;ratioP2;P2;SDS_P1;SDS_P2;PMS_P1;PMS_P2;Temp;Humidity;BMP_temperature;BMP_pressure;BME280_temperature;BME280_humidity;BME280_pressure;Samples;Min_cycle;Max_cycle;Signal;HPM_P1;HPM_P2
2021/11/02 00:00:57;;;;;;;32.73;19.27;;;7.00;99.90;;;;;;5052648;28;20226;-68
2021/11/02 00:03:24;;;;;;;32.80;18.47;;;7.00;99.90;;;;;;5040003;28;20210;-69
2021/11/02 00:05:51;;;;;;;31.53;18.10;;;7.00;99.90;;;;;;5052737;28;20210;-69
2021/11/02 00:08:19;;;;;;;31.23;19.00;;;7.00;99.90;;;;;;5043907;28;20198;-70
2021/11/02 00:10:46;;;;;;;29.73;18.13;;;6.90;99.90;;;;;;5048185;28;20212;-70
2021/11/02 00:13:13;;;;;;;28.97;19.13;;;6.90;99.90;;;;;;5045379;28;20217;-70
2021/11/02 00:15:44;;;;;;;29.63;19.23;;;6.90;99.90;;;;;;5051748;28;20293;-68
2021/11/02 00:18:11;;;;;;;29.53;19.40;;;6.90;99.90;;;;;;5046054;28;20206;-68
2021/11/02 00:20:38;;;;;;;32.80;19.07;;;6.80;99.90;;;;;;5053067;28;20206;-68
2021/11/02 00:23:07;;;;;;;29.53;19.47;;;6.80;99.90;;;;;;5044353;28;20283;-69
2021/11/02 00:25:36;;;;;;;28.23;18.60;;;6.80;99.90;;;;;;5052489;28;20236;-68
2021/11/02 00:28:04;;;;;;;31.03;18.30;;;6.80;99.90;;;;;;5046701;28;20210;-69
2021/11/02 00:30:31;;;;;;;28.77;19.57;;;6.70;99.90;;;;;;5046384;28;20203;-68
2021/11/02 00:32:57;;;;;;;34.23;19.57;;;6.70;99.90;;;;;;5049267;28;20309;-69
2021/11/02 00:35:26;;;;;;;27.67;18.27;;;6.60;99.90;;;;;;5044414;28;20292;-68
2021/11/02 00:37:55;;;;;;;29.73;19.83;;;6.60;99.90;;;;;;5049584;28;20206;-68
2021/11/02 00:40:22;;;;;;;26.83;18.90;;;6.50;99.90;;;;;;5047693;28;20235;-69
2021/11/02 00:42:52;;;;;;;28.53;18.57;;;6.50;99.90;;;;;;5045288;28;20209;-69
2021/11/02 00:45:29;;;;;;;34.10;20.33;;;6.50;99.90;;;;;;5052582;28;20263;-69
2021/11/02 00:47:56;;;;;;;30.47;20.53;;;6.50;99.90;;;;;;5048916;28;20203;-69
2021/11/02 00:50:23;;;;;;;29.83;20.03;;;6.50;99.90;;;;;;5043039;28;20228;-67
2021/11/02 00:52:50;;;;;;;29.80;20.60;;;6.50;99.90;;;;;;5051476;28;20214;-68
2021/11/02 00:55:17;;;;;;;33.13;20.10;;;6.40;99.90;;;;;;5051154;28;20231;-68
2021/11/02 00:57:44;;;;;;;32.93;20.50;;;6.50;99.90;;;;;;5048741;28;20698;-69
2021/11/02 01:00:14;;;;;;;29.53;19.57;;;6.50;99.90;;;;;;5045394;28;20207;-68
2021/11/02 01:02:41;;;;;;;33.00;19.77;;;6.50;99.90;;;;;;5031245;28;20289;-68
2021/11/02 01:05:08;;;;;;;29.23;19.97;;;6.50;99.90;;;;;;5045800;28;20214;-67
2021/11/02 01:07:36;;;;;;;32.53;20.83;;;6.40;99.90;;;;;;5031850;28;20213;-67
2021/11/02 01:10:03;;;;;;;33.03;19.97;;;6.40;99.90;;;;;;5040379;28;20707;-69
2021/11/02 01:12:30;;;;;;;33.93;21.70;;;6.40;99.90;;;;;;5041757;28;20216;-68
2021/11/02 01:14:58;;;;;;;33.10;20.30;;;6.40;99.90;;;;;;5049019;28;20206;-67
2021/11/02 01:17:26;;;;;;;31.23;21.60;;;6.30;99.90;;;;;;5048988;28;20692;-69
2021/11/02 01:19:53;;;;;;;29.53;19.97;;;6.30;99.90;;;;;;5047890;28;20631;-69
2021/11/02 01:22:20;;;;;;;32.70;21.50;;;6.30;99.90;;;;;;5043952;28;20217;-69
2021/11/02 01:24:47;;;;;;;33.03;20.80;;;6.30;99.90;;;;;;5053598;28;20236;-68
2021/11/02 01:27:14;;;;;;;33.77;21.50;;;6.30;99.90;;;;;;5055914;28;20212;-67
2021/11/02 01:29:41;;;;;;;29.80;19.93;;;6.20;99.90;;;;;;5043719;28;20210;-66
2021/11/02 01:32:09;;;;;;;33.87;20.77;;;6.20;99.90;;;;;;5047520;28;20206;-67
2021/11/02 01:34:37;;;;;;;31.27;21.50;;;6.30;99.90;;;;;;5047019;28;20199;-67
2021/11/02 01:37:05;;;;;;;31.50;20.00;;;6.30;99.90;;;;;;5051526;28;20226;-69
2021/11/02 01:39:32;;;;;;;30.43;20.33;;;6.20;99.90;;;;;;5045727;28;20210;-67
2021/11/02 01:42:00;;;;;;;30.07;19.70;;;6.20;99.90;;;;;;5049590;28;20213;-67
2021/11/02 01:44:28;;;;;;;31.33;20.80;;;6.30;99.90;;;;;;5054235;28;20240;-69
2021/11/02 01:46:55;;;;;;;33.93;20.97;;;6.30;99.90;;;;;;5053660;28;20198;-68
2021/11/02 01:49:23;;;;;;;32.97;20.63;;;6.20;99.90;;;;;;5054373;28;20710;-69
2021/11/02 01:51:51;;;;;;;28.60;20.30;;;6.20;99.90;;;;;;5055062;28;20206;-68
2021/11/02 01:54:18;;;;;;;34.67;21.13;;;6.20;99.90;;;;;;5041827;28;20647;-68
2021/11/02 01:56:48;;;;;;;33.23;21.03;;;6.20;99.90;;;;;;5055445;28;20381;-68
2021/11/02 01:59:15;;;;;;;33.00;20.67;;;6.20;99.90;;;;;;5042900;28;20241;-69
2021/11/02 02:01:51;;;;;;;29.83;20.37;;;6.10;99.90;;;;;;5044044;28;20206;-68
2021/11/02 02:04:29;;;;;;;34.40;21.10;;;6.00;99.90;;;;;;5055463;28;20260;-68
2021/11/02 02:07:09;;;;;;;32.63;20.97;;;6.00;99.90;;;;;;5056783;28;20197;-68
2021/11/02 02:09:46;;;;;;;33.17;20.30;;;6.00;99.90;;;;;;5055619;28;20213;-69
2021/11/02 02:12:27;;;;;;;33.57;20.47;;;5.90;99.90;;;;;;5046540;28;20202;-67
2021/11/02 02:15:04;;;;;;;31.87;20.00;;;5.90;99.90;;;;;;5051701;28;20218;-68
2021/11/02 02:17:43;;;;;;;33.23;21.00;;;5.90;99.90;;;;;;5056440;28;20204;-68
2021/11/02 02:20:15;;;;;;;30.07;20.27;;;5.80;99.90;;;;;;5054075;28;20193;-69
2021/11/02 02:23:07;;;;;;;30.87;20.03;;;5.80;99.90;;;;;;5052619;28;20198;-68
2021/11/02 02:25:46;;;;;;;32.30;20.87;;;5.80;99.90;;;;;;5056083;28;20198;-69
2021/11/02 02:28:18;;;;;;;36.17;20.83;;;5.80;99.90;;;;;;5053719;28;20586;-69
2021/11/02 02:30:50;;;;;;;34.67;21.20;;;5.80;99.90;;;;;;5038992;28;20216;-68
2021/11/02 02:33:19;;;;;;;30.17;19.57;;;5.80;99.90;;;;;;5054853;28;20280;-68
2021/11/02 02:35:47;;;;;;;31.77;21.17;;;5.80;99.90;;;;;;5049181;28;20700;-68
2021/11/02 02:38:15;;;;;;;33.00;20.80;;;5.70;99.90;;;;;;5044493;28;20216;-69
2021/11/02 02:40:46;;;;;;;36.20;21.73;;;5.70;99.90;;;;;;5051415;28;20217;-68
2021/11/02 02:43:15;;;;;;;31.00;19.87;;;5.70;99.90;;;;;;5055657;28;20208;-67
2021/11/02 02:45:42;;;;;;;34.40;20.73;;;5.70;99.90;;;;;;5054359;28;20202;-68
2021/11/02 02:48:10;;;;;;;32.40;20.97;;;5.70;99.90;;;;;;5055077;28;20212;-68
2021/11/02 02:50:37;;;;;;;31.70;21.10;;;5.70;99.90;;;;;;5049638;28;20224;-68
2021/11/02 02:53:05;;;;;;;32.27;20.80;;;5.60;99.90;;;;;;5052150;28;20217;-68
2021/11/02 02:55:33;;;;;;;31.57;20.60;;;5.70;99.90;;;;;;5044346;28;20230;-68
2021/11/02 02:58:01;;;;;;;34.50;20.17;;;5.70;99.90;;;;;;5053464;28;20226;-68
2021/11/02 03:00:31;;;;;;;33.57;21.53;;;5.60;99.90;;;;;;5035439;28;20217;-68
2021/11/02 03:03:02;;;;;;;35.60;21.37;;;5.60;99.90;;;;;;5053009;28;20651;-67
2021/11/02 03:05:29;;;;;;;37.37;21.73;;;5.60;99.90;;;;;;5042704;28;20204;-68
2021/11/02 03:07:56;;;;;;;33.30;22.60;;;5.60;99.90;;;;;;5053767;28;20206;-67
2021/11/02 03:10:24;;;;;;;33.87;21.30;;;5.60;99.90;;;;;;5045157;28;20624;-67
2021/11/02 03:12:53;;;;;;;31.93;20.87;;;5.50;99.90;;;;;;5040706;28;20234;-68
2021/11/02 03:18:17;;;;;;;34.73;21.00;;;5.50;99.90;;;;;;5051633;28;20210;-68
2021/11/02 03:48:50;;;;;;;28.50;19.57;;;5.30;99.90;;;;;;5021750;28;20209;-69
2021/11/02 03:57:05;;;;;;;36.30;21.23;;;5.40;99.90;;;;;;5040124;28;20625;-69
2021/11/02 04:30:56;;;;;;;32.27;20.87;;;5.30;99.90;;;;;;5105505;27;20598;-68
2021/11/02 05:07:26;;;;;;;34.07;20.73;;;5.00;99.90;;;;;;5058115;28;20247;-68
2021/11/02 05:10:21;;;;;;;35.17;21.50;;;5.00;99.90;;;;;;5069023;28;20274;-68
2021/11/02 05:49:08;;;;;;;34.33;20.40;;;4.90;99.90;;;;;;5056133;28;20217;-68
2021/11/02 05:51:56;;;;;;;30.67;20.13;;;4.90;99.90;;;;;;5055340;28;20830;-69
2021/11/02 05:54:45;;;;;;;31.60;20.07;;;4.90;99.90;;;;;;5055661;28;20251;-68
2021/11/02 05:57:21;;;;;;;35.43;21.33;;;4.90;99.90;;;;;;5063705;28;20228;-69
2021/11/02 05:59:52;;;;;;;30.93;19.10;;;4.90;99.90;;;;;;5046949;28;20212;-67
2021/11/02 06:02:36;;;;;;;33.80;20.63;;;4.80;99.90;;;;;;5055550;28;20289;-68
2021/11/02 06:05:22;;;;;;;30.23;19.53;;;4.90;99.90;;;;;;5055519;28;20571;-68
2021/11/02 06:08:08;;;;;;;31.63;20.83;;;4.80;99.90;;;;;;5065954;28;20666;-67
2021/11/02 06:11:00;;;;;;;36.57;21.33;;;4.90;99.90;;;;;;5049479;28;20218;-68
2021/11/02 06:27:48;;;;;;;32.80;20.17;;;5.10;99.90;;;;;;5054613;28;20654;-67
2021/11/02 06:30:18;;;;;;;33.03;21.27;;;5.10;99.90;;;;;;5058338;28;20294;-69
2021/11/02 06:32:49;;;;;;;30.87;20.07;;;5.10;99.90;;;;;;5066503;28;20297;-73
2021/11/02 06:35:24;;;;;;;39.23;22.10;;;5.20;99.90;;;;;;5055949;28;20631;-68
2021/11/02 06:43:45;;;;;;;32.93;20.70;;;5.70;99.90;;;;;;5057072;28;20271;-69
2021/11/02 06:46:36;;;;;;;31.93;20.77;;;5.90;99.90;;;;;;5065880;28;20205;-69
2021/11/02 06:49:27;;;;;;;32.13;18.67;;;6.20;99.90;;;;;;5053053;28;20275;-68
2021/11/02 06:55:08;;;;;;;30.50;20.03;;;6.40;99.90;;;;;;5007352;28;20213;-71
2021/11/02 06:58:01;;;;;;;29.53;19.77;;;6.50;99.90;;;;;;5059193;28;20229;-71
2021/11/02 07:17:20;;;;;;;31.20;19.80;;;7.70;99.90;;;;;;5056237;28;20913;-71
2021/11/02 07:19:54;;;;;;;30.50;19.43;;;7.90;99.90;;;;;;5056021;28;20208;-70
2021/11/02 07:25:14;;;;;;;33.07;19.47;;;8.00;99.90;;;;;;5048831;28;20210;-70
2021/11/02 07:28:10;;;;;;;25.63;18.73;;;8.00;99.90;;;;;;5052630;28;20635;-69
2021/11/02 08:45:53;;;;;;;22.53;16.80;;;14.40;99.90;;;;;;5059152;28;20606;-67
2021/11/02 08:48:20;;;;;;;21.17;16.13;;;17.00;93.10;;;;;;5055713;28;20205;-67
2021/11/02 08:50:52;;;;;;;22.27;16.13;;;19.40;80.20;;;;;;5062844;28;20228;-69
2021/11/02 08:53:20;;;;;;;27.02;16.80;;;21.10;64.80;;;;;;5039281;28;20271;-69
2021/11/02 08:55:49;;;;;;;21.77;16.65;;;22.40;58.90;;;;;;5059021;28;20736;-68
2021/11/02 08:58:19;;;;;;;21.90;17.88;;;23.50;53.60;;;;;;5051193;28;20236;-70
2021/11/02 09:00:46;;;;;;;19.25;16.25;;;22.90;49.40;;;;;;5060787;28;20560;-69
2021/11/02 09:03:19;;;;;;;25.58;18.63;;;22.20;50.80;;;;;;5057238;28;21095;-67
2021/11/02 09:05:52;;;;;;;23.05;17.25;;;22.10;51.30;;;;;;5056768;28;20209;-67
2021/11/02 09:08:21;;;;;;;19.52;16.23;;;22.30;52.00;;;;;;5060886;28;20190;-68
2021/11/02 09:10:51;;;;;;;18.05;16.17;;;22.50;50.40;;;;;;5061346;28;20688;-68
2021/11/02 09:13:22;;;;;;;20.90;17.45;;;22.80;50.30;;;;;;5057311;28;20209;-68
2021/11/02 09:15:54;;;;;;;21.13;16.00;;;23.30;49.70;;;;;;5059761;28;20304;-69
2021/11/02 09:18:22;;;;;;;23.70;16.98;;;23.10;46.90;;;;;;5054645;28;20202;-67
2021/11/02 09:20:49;;;;;;;20.23;16.33;;;22.00;46.50;;;;;;5056856;28;20642;-68
2021/11/02 09:23:16;;;;;;;22.73;16.42;;;20.60;47.90;;;;;;5061482;28;20669;-68
2021/11/02 09:25:43;;;;;;;23.13;16.35;;;19.10;49.80;;;;;;5052469;28;20202;-69
2021/11/02 09:28:11;;;;;;;20.63;16.77;;;17.80;52.80;;;;;;5057735;28;20206;-68
2021/11/02 09:30:38;;;;;;;22.67;17.93;;;16.60;54.70;;;;;;5054239;28;20236;-67
2021/11/02 09:33:05;;;;;;;23.10;19.20;;;15.70;56.70;;;;;;5055154;28;20480;-68
2021/11/02 09:35:33;;;;;;;26.05;19.98;;;14.90;59.10;;;;;;5053766;28;20439;-67
2021/11/02 09:38:15;;;;;;;27.37;17.87;;;14.10;61.90;;;;;;5054865;28;20229;-69
2021/11/02 09:41:27;;;;;;;24.55;19.38;;;13.40;64.10;;;;;;5057006;28;20916;-67
2021/11/02 09:44:30;;;;;;;24.77;17.57;;;12.80;67.60;;;;;;5063366;28;20583;-69
2021/11/02 09:47:26;;;;;;;26.90;17.60;;;12.30;69.80;;;;;;5054323;28;20205;-68
2021/11/02 09:50:23;;;;;;;22.37;15.30;;;12.10;71.90;;;;;;5050265;28;20297;-70
2021/11/02 09:53:24;;;;;;;21.10;15.90;;;12.00;73.80;;;;;;5052672;28;20229;-67
2021/11/02 09:56:18;;;;;;;27.23;17.03;;;12.00;76.10;;;;;;5061572;28;20194;-68
2021/11/02 09:59:19;;;;;;;26.87;16.10;;;12.30;78.20;;;;;;5049919;28;20245;-68
2021/11/02 10:01:51;;;;;;;24.07;16.07;;;12.90;80.70;;;;;;5045964;28;20241;-67
2021/11/02 10:04:55;;;;;;;22.37;15.67;;;14.30;78.70;;;;;;5062816;28;20194;-67
2021/11/02 10:07:49;;;;;;;21.87;15.20;;;15.70;74.90;;;;;;5055077;28;20212;-69
2021/11/02 10:10:21;;;;;;;21.07;15.20;;;17.20;68.50;;;;;;5056504;28;20251;-69
2021/11/02 10:13:02;;;;;;;18.57;14.33;;;18.70;63.60;;;;;;5065113;28;20267;-69
2021/11/02 10:15:43;;;;;;;19.13;15.60;;;19.20;58.10;;;;;;5053423;28;20292;-69
2021/11/02 10:18:49;;;;;;;17.00;14.87;;;18.60;56.80;;;;;;5058432;28;20205;-69
2021/11/02 10:22:00;;;;;;;23.87;15.60;;;17.90;58.10;;;;;;5051138;28;20204;-68
2021/11/02 10:24:46;;;;;;;21.47;15.23;;;17.50;59.80;;;;;;5051638;28;20197;-69
2021/11/02 10:27:27;;;;;;;20.60;15.00;;;17.90;60.90;;;;;;5055075;28;20198;-70
2021/11/02 10:30:34;;;;;;;18.80;13.93;;;18.10;58.40;;;;;;5053694;28;20280;-69
2021/11/02 10:33:09;;;;;;;21.20;14.23;;;18.30;59.00;;;;;;5051347;28;20200;-70
2021/11/02 10:36:08;;;;;;;21.83;14.37;;;18.60;57.40;;;;;;5053385;28;20197;-70
2021/11/02 10:38:47;;;;;;;18.17;14.80;;;18.60;56.30;;;;;;5053582;28;20673;-68
2021/11/02 10:41:19;;;;;;;22.77;14.77;;;18.10;55.80;;;;;;5051350;28;20256;-69
2021/11/02 10:43:59;;;;;;;17.73;14.23;;;17.50;56.50;;;;;;5049159;28;20518;-68
2021/11/02 10:46:32;;;;;;;18.13;14.43;;;16.90;57.90;;;;;;5053299;28;20208;-68
2021/11/02 10:49:00;;;;;;;19.03;14.37;;;16.40;59.80;;;;;;5053926;28;20205;-69
2021/11/02 10:51:40;;;;;;;20.27;15.13;;;16.20;60.10;;;;;;5053935;28;20340;-69
2021/11/02 10:54:21;;;;;;;17.73;14.77;;;15.90;60.80;;;;;;5055087;28;20259;-69
2021/11/02 10:57:13;;;;;;;20.70;14.90;;;16.10;62.60;;;;;;5042834;28;20225;-68
2021/11/02 10:59:46;;;;;;;19.83;15.50;;;16.60;61.70;;;;;;5054764;28;20754;-69
2021/11/02 11:02:25;;;;;;;18.33;14.20;;;16.70;59.60;;;;;;5054880;28;20622;-70
2021/11/02 11:04:54;;;;;;;20.27;15.87;;;16.50;59.30;;;;;;5054689;28;20742;-68
2021/11/02 11:07:22;;;;;;;21.47;13.77;;;16.10;59.70;;;;;;5054086;28;20209;-69
2021/11/02 11:09:52;;;;;;;23.37;15.37;;;15.70;60.70;;;;;;5052567;28;20669;-69
2021/11/02 11:12:21;;;;;;;21.83;15.27;;;15.40;61.40;;;;;;5052924;28;20210;-68
2021/11/02 11:14:53;;;;;;;19.83;14.97;;;15.00;62.50;;;;;;5055251;28;20265;-69
2021/11/02 11:17:28;;;;;;;18.57;14.90;;;14.60;63.80;;;;;;5055558;28;20206;-68
2021/11/02 11:20:05;;;;;;;20.27;15.10;;;14.30;64.90;;;;;;5051046;28;20198;-68
2021/11/02 11:22:38;;;;;;;19.73;14.83;;;14.00;65.90;;;;;;5050378;28;20202;-68
2021/11/02 11:25:10;;;;;;;19.00;15.10;;;13.80;66.50;;;;;;5048128;28;20210;-68
2021/11/02 11:27:43;;;;;;;19.83;14.63;;;13.60;67.40;;;;;;5048812;28;20206;-68
2021/11/02 11:30:10;;;;;;;22.50;14.97;;;13.30;68.10;;;;;;5052509;28;20237;-70
2021/11/02 11:32:38;;;;;;;19.77;14.00;;;13.10;69.20;;;;;;5052829;28;20216;-69
2021/11/02 11:35:08;;;;;;;24.23;16.10;;;12.80;70.30;;;;;;5050759;28;20210;-68
2021/11/02 11:37:40;;;;;;;20.17;14.87;;;12.50;71.50;;;;;;5048730;28;20235;-68
2021/11/02 11:40:09;;;;;;;18.93;14.77;;;12.20;72.60;;;;;;5050221;28;20229;-68
2021/11/02 11:42:38;;;;;;;23.23;15.43;;;12.10;73.80;;;;;;5057402;28;20321;-68
2021/11/02 11:45:09;;;;;;;20.97;14.63;;;11.90;74.60;;;;;;5052911;28;20293;-69
2021/11/02 11:47:36;;;;;;;22.17;14.60;;;11.80;75.50;;;;;;5062173;28;20534;-69
2021/11/02 11:50:20;;;;;;;23.60;14.23;;;11.70;76.30;;;;;;5052150;28;20589;-68
2021/11/02 11:52:50;;;;;;;20.23;14.30;;;11.60;76.60;;;;;;5054022;28;20665;-68
2021/11/02 11:55:26;;;;;;;21.27;14.17;;;11.50;77.50;;;;;;5046910;28;20229;-68
2021/11/02 11:58:07;;;;;;;20.80;14.47;;;11.50;78.10;;;;;;5056350;28;20226;-68
2021/11/02 12:00:36;;;;;;;18.83;14.40;;;11.50;78.80;;;;;;5051184;28;20218;-69
2021/11/02 12:03:05;;;;;;;20.53;13.77;;;11.40;79.30;;;;;;5050594;28;20205;-68
2021/11/02 12:05:33;;;;;;;21.50;14.93;;;11.40;79.80;;;;;;5055970;28;20288;-70
2021/11/02 12:08:09;;;;;;;27.20;14.37;;;11.30;80.20;;;;;;5054584;28;20228;-68
2021/11/02 12:10:39;;;;;;;21.93;15.77;;;11.30;81.10;;;;;;5054834;28;20228;-69
2021/11/02 12:13:08;;;;;;;22.97;14.50;;;11.30;81.40;;;;;;5053979;28;20270;-69
2021/11/02 12:15:46;;;;;;;20.47;14.33;;;11.30;81.90;;;;;;5051882;28;20233;-68
2021/11/02 12:18:17;;;;;;;19.50;15.23;;;11.30;82.40;;;;;;5053097;28;20206;-69
2021/11/02 12:20:45;;;;;;;22.13;15.20;;;11.30;82.90;;;;;;5052405;28;20194;-68
2021/11/02 12:23:33;;;;;;;20.00;14.90;;;11.30;83.30;;;;;;5052910;28;20208;-68
2021/11/02 12:26:00;;;;;;;20.43;14.53;;;11.30;83.70;;;;;;5057236;28;20205;-69
2021/11/02 12:28:33;;;;;;;21.43;14.93;;;11.30;84.20;;;;;;5053177;28;20672;-69
2021/11/02 12:31:02;;;;;;;23.00;15.70;;;11.30;84.60;;;;;;5052907;28;20206;-68
2021/11/02 12:33:30;;;;;;;22.63;16.17;;;11.30;85.00;;;;;;5061155;28;20201;-67
2021/11/02 12:35:58;;;;;;;27.03;16.20;;;11.30;85.40;;;;;;5048745;28;20689;-68
2021/11/02 12:38:37;;;;;;;25.73;16.93;;;11.30;85.90;;;;;;5052796;28;20233;-69
2021/11/02 12:41:19;;;;;;;25.07;16.63;;;11.30;86.20;;;;;;5053463;28;20190;-69
2021/11/02 12:43:47;;;;;;;22.20;16.73;;;11.30;86.70;;;;;;5055092;28;20590;-69
2021/11/02 12:46:14;;;;;;;24.70;16.27;;;11.30;87.30;;;;;;5051860;28;20698;-67
2021/11/02 12:48:46;;;;;;;22.83;15.73;;;11.30;87.60;;;;;;5052217;28;20303;-68
2021/11/02 12:51:22;;;;;;;20.93;15.17;;;11.30;87.90;;;;;;5054046;28;20224;-68
2021/11/02 12:53:58;;;;;;;23.90;16.20;;;11.40;88.30;;;;;;5060165;28;20208;-68
2021/11/02 12:56:27;;;;;;;21.67;16.30;;;11.30;88.60;;;;;;5056582;28;20294;-68
2021/11/02 12:59:03;;;;;;;22.97;16.37;;;11.40;89.10;;;;;;5069362;28;20209;-67
2021/11/02 13:01:35;;;;;;;25.23;16.20;;;11.40;89.50;;;;;;5057852;28;20190;-67
2021/11/02 13:04:04;;;;;;;24.87;17.33;;;11.30;89.60;;;;;;5057852;28;20206;-68
2021/11/02 13:06:40;;;;;;;22.03;16.23;;;11.30;90.00;;;;;;5056544;28;20651;-68
2021/11/02 13:09:09;;;;;;;20.47;15.20;;;11.40;90.40;;;;;;5058732;28;20218;-67
2021/11/02 13:11:37;;;;;;;22.90;15.50;;;11.40;90.60;;;;;;5054443;28;20261;-68
2021/11/02 13:14:11;;;;;;;24.13;16.73;;;11.40;90.80;;;;;;5057759;28;20210;-68
2021/11/02 13:16:56;;;;;;;23.80;15.30;;;11.40;91.00;;;;;;5055383;28;20210;-67
2021/11/02 13:19:25;;;;;;;23.57;16.53;;;11.40;91.30;;;;;;5054833;28;20263;-66
2021/11/02 13:21:53;;;;;;;27.13;16.37;;;11.40;91.60;;;;;;5056957;28;20216;-67
2021/11/02 13:24:26;;;;;;;24.67;16.97;;;11.40;92.10;;;;;;5053695;28;20220;-67
2021/11/02 13:26:56;;;;;;;23.97;16.57;;;11.50;92.50;;;;;;5056463;28;20416;-67
2021/11/02 13:29:26;;;;;;;20.27;15.80;;;11.50;92.80;;;;;;5059957;28;20599;-65
2021/11/02 13:31:53;;;;;;;22.73;16.13;;;11.40;93.40;;;;;;5055872;28;20232;-67
2021/11/02 13:34:33;;;;;;;24.07;16.57;;;11.40;93.90;;;;;;5064995;28;20209;-68
2021/11/02 13:37:02;;;;;;;21.43;15.87;;;11.40;94.70;;;;;;5060350;28;20202;-69
2021/11/02 13:39:30;;;;;;;22.50;16.30;;;11.40;95.10;;;;;;5069861;28;20248;-68
2021/11/02 13:41:58;;;;;;;21.67;16.23;;;11.30;95.50;;;;;;5051180;28;20653;-67
2021/11/02 13:44:30;;;;;;;23.17;16.70;;;11.30;96.00;;;;;;5060944;28;20303;-68
2021/11/02 13:47:00;;;;;;;24.50;16.50;;;11.20;96.50;;;;;;5060139;28;20301;-68
2021/11/02 13:49:27;;;;;;;21.47;17.27;;;11.20;96.90;;;;;;5060961;28;20202;-68
2021/11/02 13:51:54;;;;;;;25.13;17.33;;;11.10;97.60;;;;;;5059732;28;20654;-70
2021/11/02 13:54:22;;;;;;;23.53;17.30;;;11.00;98.20;;;;;;5062215;28;20204;-68
2021/11/02 13:56:50;;;;;;;24.17;17.60;;;11.00;98.90;;;;;;5059338;28;20233;-70
2021/11/02 13:59:17;;;;;;;23.60;17.03;;;10.90;99.70;;;;;;5061682;28;20214;-69
2021/11/02 14:01:45;;;;;;;26.87;17.87;;;10.80;99.90;;;;;;5055292;28;20574;-69
2021/11/02 14:04:16;;;;;;;28.23;18.17;;;10.80;99.90;;;;;;5052122;28;20217;-70
2021/11/02 14:06:47;;;;;;;23.80;17.47;;;10.80;99.90;;;;;;5042890;28;20655;-68
2021/11/02 14:09:16;;;;;;;27.57;19.10;;;10.70;99.90;;;;;;5054445;28;20198;-66
2021/11/02 14:11:43;;;;;;;26.43;17.50;;;10.70;99.90;;;;;;5051789;28;20258;-68
2021/11/02 14:14:32;;;;;;;25.93;18.63;;;10.70;99.90;;;;;;5054582;28;20224;-68
2021/11/02 14:17:14;;;;;;;29.90;19.97;;;10.70;99.90;;;;;;5050489;28;20505;-69
2021/11/02 14:19:43;;;;;;;26.17;18.23;;;10.70;99.90;;;;;;5050851;28;20212;-69
2021/11/02 14:22:10;;;;;;;24.70;18.10;;;10.70;99.90;;;;;;5053324;28;20689;-67
2021/11/02 14:24:39;;;;;;;23.83;18.60;;;10.70;99.90;;;;;;5050678;28;20226;-69
2021/11/02 14:27:08;;;;;;;25.97;18.57;;;10.60;99.90;;;;;;5053024;28;20210;-68
2021/11/02 14:29:50;;;;;;;25.77;17.43;;;10.60;99.90;;;;;;5060051;28;20242;-69
2021/11/02 14:32:49;;;;;;;28.73;18.33;;;10.50;99.90;;;;;;5053889;28;20305;-69
2021/11/02 14:35:51;;;;;;;26.37;17.70;;;10.50;99.90;;;;;;5052384;28;20205;-69
2021/11/02 14:38:20;;;;;;;26.93;18.07;;;10.50;99.90;;;;;;5046847;28;20689;-69
2021/11/02 14:40:48;;;;;;;26.53;18.57;;;10.40;99.90;;;;;;5052872;28;20208;-68
2021/11/02 14:43:22;;;;;;;23.87;17.97;;;10.40;99.90;;;;;;5053356;28;20197;-68
2021/11/02 14:45:52;;;;;;;25.17;19.23;;;10.30;99.90;;;;;;5056311;28;20209;-70
2021/11/02 14:48:36;;;;;;;28.07;18.20;;;10.20;99.90;;;;;;5053739;28;20220;-70
2021/11/02 14:51:04;;;;;;;25.57;17.80;;;10.20;99.90;;;;;;5053574;28;20220;-67
2021/11/02 14:53:34;;;;;;;28.93;19.93;;;10.20;99.90;;;;;;5052258;28;20234;-68
2021/11/02 14:56:05;;;;;;;27.03;19.87;;;10.10;99.90;;;;;;5052705;28;20293;-67
2021/11/02 14:58:50;;;;;;;25.37;18.20;;;10.10;99.90;;;;;;5052725;28;20213;-68
2021/11/02 15:01:25;;;;;;;29.73;19.90;;;10.10;99.90;;;;;;5051355;28;20206;-69
2021/11/02 15:03:55;;;;;;;29.83;18.83;;;10.00;99.90;;;;;;5052394;28;20296;-68
2021/11/02 15:06:29;;;;;;;28.13;19.83;;;10.00;99.90;;;;;;5050061;28;20674;-67
2021/11/02 15:08:56;;;;;;;29.60;18.97;;;9.90;99.90;;;;;;5045240;28;20208;-66
2021/11/02 15:11:23;;;;;;;28.40;19.00;;;9.90;99.90;;;;;;5051413;28;20261;-66
2021/11/02 15:13:52;;;;;;;27.17;18.67;;;9.80;99.90;;;;;;5051236;28;20214;-68
2021/11/02 15:16:20;;;;;;;25.67;18.23;;;9.80;99.90;;;;;;5053299;28;20241;-70
2021/11/02 15:18:51;;;;;;;26.13;17.97;;;9.80;99.90;;;;;;5052176;28;20331;-69
2021/11/02 15:21:27;;;;;;;24.43;18.70;;;9.70;99.90;;;;;;5055065;28;20296;-69
2021/11/02 15:23:54;;;;;;;25.80;17.83;;;9.70;99.90;;;;;;5048939;28;20303;-69
2021/11/02 15:26:21;;;;;;;27.87;19.27;;;9.70;99.90;;;;;;5050212;28;20300;-68
2021/11/02 15:28:51;;;;;;;27.63;18.87;;;9.70;99.90;;;;;;5052350;28;20264;-69
2021/11/02 15:31:21;;;;;;;29.60;19.67;;;9.60;99.90;;;;;;5050676;28;20217;-68
2021/11/02 15:33:50;;;;;;;29.77;18.90;;;9.60;99.90;;;;;;5051859;28;20268;-68
2021/11/02 15:36:20;;;;;;;28.67;20.43;;;9.60;99.90;;;;;;5052310;28;20229;-70
2021/11/02 15:39:03;;;;;;;27.53;18.87;;;9.60;99.90;;;;;;5051992;28;20280;-67
2021/11/02 15:41:31;;;;;;;29.97;19.20;;;9.60;99.90;;;;;;5052800;28;20205;-69
2021/11/02 15:44:01;;;;;;;30.73;20.60;;;9.60;99.90;;;;;;5054921;28;20202;-69
2021/11/02 15:46:39;;;;;;;31.97;20.53;;;9.50;99.90;;;;;;5056642;28;20224;-68
2021/11/02 15:49:09;;;;;;;26.10;19.47;;;9.50;99.90;;;;;;5052132;28;20216;-70
2021/11/02 15:51:40;;;;;;;34.77;20.97;;;9.40;99.90;;;;;;5048555;28;20226;-69
2021/11/02 15:54:12;;;;;;;30.83;20.23;;;9.40;99.90;;;;;;5051287;28;20454;-69
2021/11/02 15:56:41;;;;;;;29.80;20.47;;;9.40;99.90;;;;;;5054677;28;20240;-68
2021/11/02 15:59:09;;;;;;;34.57;22.07;;;9.40;99.90;;;;;;5050321;28;20241;-68
2021/11/02 16:01:40;;;;;;;32.57;20.47;;;9.40;99.90;;;;;;5052461;28;20198;-69
2021/11/02 16:04:14;;;;;;;28.40;20.97;;;9.40;99.90;;;;;;5051342;28;20202;-68
2021/11/02 16:07:07;;;;;;;30.47;20.80;;;9.40;99.90;;;;;;5051888;28;20613;-69
2021/11/02 16:09:58;;;;;;;31.57;21.43;;;9.40;99.90;;;;;;5051962;28;20201;-69
2021/11/02 16:12:31;;;;;;;34.23;22.47;;;9.40;99.90;;;;;;5047287;28;20234;-69
2021/11/02 16:15:02;;;;;;;32.23;21.87;;;9.40;99.90;;;;;;5050413;28;20292;-70
2021/11/02 16:17:30;;;;;;;33.27;21.87;;;9.30;99.90;;;;;;5050882;28;20220;-69
2021/11/02 16:20:00;;;;;;;37.33;23.40;;;9.40;99.90;;;;;;5051423;28;20583;-70
2021/11/02 16:22:27;;;;;;;43.97;26.10;;;9.30;99.90;;;;;;5049343;28;20206;-70
2021/11/02 16:25:03;;;;;;;42.20;27.13;;;9.30;99.90;;;;;;5050275;28;20654;-69
2021/11/02 16:27:30;;;;;;;40.10;26.77;;;9.30;99.90;;;;;;5050065;28;20254;-70
2021/11/02 16:29:57;;;;;;;43.73;27.23;;;9.20;99.90;;;;;;5051067;28;20241;-68
2021/11/02 16:32:25;;;;;;;39.73;26.60;;;9.20;99.90;;;;;;5051188;28;20234;-68
2021/11/02 16:34:53;;;;;;;40.07;27.13;;;9.20;99.90;;;;;;5050162;28;20218;-70
2021/11/02 16:37:33;;;;;;;45.20;29.20;;;9.10;99.90;;;;;;5049332;28;20220;-69
2021/11/02 16:40:26;;;;;;;45.50;27.30;;;9.10;99.90;;;;;;5052014;28;20618;-68
2021/11/02 16:42:56;;;;;;;40.57;27.13;;;9.00;99.90;;;;;;5039801;28;20241;-69
2021/11/02 16:45:24;;;;;;;45.93;27.83;;;9.00;99.90;;;;;;5047317;28;20217;-70
2021/11/02 16:47:59;;;;;;;41.83;27.90;;;9.00;99.90;;;;;;5051239;28;20212;-70
2021/11/02 16:50:30;;;;;;;42.83;26.70;;;8.90;99.90;;;;;;5052189;28;20213;-70
2021/11/02 16:53:17;;;;;;;44.73;27.77;;;9.00;99.90;;;;;;5059361;28;20305;-70
2021/11/02 16:55:46;;;;;;;45.23;27.70;;;8.90;99.90;;;;;;5051975;28;20288;-71
2021/11/02 16:58:32;;;;;;;45.93;29.27;;;8.90;99.90;;;;;;5052026;28;20667;-71
2021/11/02 17:01:36;;;;;;;46.57;27.83;;;8.90;99.90;;;;;;5045735;28;20228;-71
2021/11/02 17:04:19;;;;;;;42.07;26.63;;;8.90;99.90;;;;;;5045519;28;20288;-71
2021/11/02 17:06:46;;;;;;;46.70;29.00;;;8.90;99.90;;;;;;5047088;28;20206;-69
2021/11/02 17:09:16;;;;;;;44.30;29.10;;;8.90;99.90;;;;;;5049935;28;20206;-70
2021/11/02 17:11:50;;;;;;;46.90;28.63;;;8.80;99.90;;;;;;5050866;28;20229;-67
2021/11/02 17:14:17;;;;;;;43.33;27.97;;;8.80;99.90;;;;;;5050512;28;20636;-68
2021/11/02 17:16:49;;;;;;;48.17;29.37;;;8.80;99.90;;;;;;5049570;28;20212;-68
2021/11/02 17:19:19;;;;;;;47.53;28.70;;;8.80;99.90;;;;;;5049742;28;20217;-69
2021/11/02 17:21:49;;;;;;;47.87;27.80;;;8.70;99.90;;;;;;5050744;28;20292;-70